Mehmet Bey — 9HUD6 — position and weather

sailwx.info

Track history (hours):
 
Tides and Currents Weather Stations Pressure Air Temp Water Temp Dewpoint Dewpoint Depression Visibility Wind Speed Wind Dir Waves Ship Positions

Mehmet Bey

Last reported at 2016-Sep-27 10:33 UTC. Time now 2016-Sep-28 01:52 UTC.
Position N 37°52' E 024°33'.

Length 131 m; draft 5.2 m.

Type: Cargo ship. MMSI: 248864000.

Date/timePositionNaut miles runAvg speedWind from/ knotsBaromVisibWave heightAir tempDewpointWater temp
2016-Sep-27 10:33N 37°52' E 024°33'  
2016-Sep-20 08:33N 44°27' E 012°15'0 0.0
2016-Sep-20 06:15N 44°27' E 012°15'0 0.0
2016-Sep-20 02:33N 44°27' E 012°15'0 0.0
2016-Sep-19 23:33N 44°27' E 012°15'0 0.0
2016-Sep-19 19:33N 44°27' E 012°15'0 0.0
2016-Sep-19 18:33N 44°27' E 012°15'0 0.0
2016-Sep-19 16:24N 44°27' E 012°15'0 0.0
2016-Sep-19 06:18N 44°28' E 012°15'8 0.3
2016-Sep-18 01:33N 44°30' E 012°26'1 1.1
2016-Sep-18 00:33N 44°30' E 012°27'21 6.9
2016-Sep-17 21:31N 44°22' E 012°55'7 7.6
2016-Sep-17 20:33N 44°19' E 013°04'10 7.9
2016-Sep-17 19:16N 44°16' E 013°18'  
Track history (hours):
 
Tides and Currents Weather Stations Pressure Air Temp Water Temp Dewpoint Dewpoint Depression Visibility Wind Speed Wind Dir Waves Ship Positions

Mehmet Bey

Last reported at 2016-Sep-27 10:33 UTC. Time now 2016-Sep-28 01:52 UTC.
Position N 37°52' E 024°33'.

Length 131 m; draft 5.2 m.

Type: Cargo ship. MMSI: 248864000.

Date/timePositionNaut miles runAvg speedWind from/ knotsBaromVisibWave heightAir tempDewpointWater temp
2016-Sep-27 10:33N 37°52' E 024°33'  
2016-Sep-20 08:33N 44°27' E 012°15'0 0.0
2016-Sep-20 06:15N 44°27' E 012°15'0 0.0
2016-Sep-20 02:33N 44°27' E 012°15'0 0.0
2016-Sep-19 23:33N 44°27' E 012°15'0 0.0
2016-Sep-19 19:33N 44°27' E 012°15'0 0.0
2016-Sep-19 18:33N 44°27' E 012°15'0 0.0
2016-Sep-19 16:24N 44°27' E 012°15'0 0.0
2016-Sep-19 06:18N 44°28' E 012°15'8 0.3
2016-Sep-18 01:33N 44°30' E 012°26'1 1.1
2016-Sep-18 00:33N 44°30' E 012°27'21 6.9
2016-Sep-17 21:31N 44°22' E 012°55'7 7.6
2016-Sep-17 20:33N 44°19' E 013°04'10 7.9
2016-Sep-17 19:16N 44°16' E 013°18'  

Dump ship's entire track history